createdAt,value
2023-04-29T00:02:23.696Z,10.41
2023-04-29T00:04:52.133Z,10.22
2023-04-29T00:07:20.627Z,10.28
2023-04-29T00:09:48.957Z,10.37
2023-04-29T00:12:17.970Z,10.31
2023-04-29T00:14:46.205Z,10.42
2023-04-29T00:17:16.367Z,10.53
2023-04-29T00:19:45.485Z,10.48
2023-04-29T00:22:13.885Z,10.08
2023-04-29T00:24:42.125Z,9.91
2023-04-29T00:27:12.171Z,10.18
2023-04-29T00:29:40.468Z,9.95
2023-04-29T00:32:08.906Z,9.68
2023-04-29T00:34:38.607Z,9.50
2023-04-29T00:37:06.811Z,9.97
2023-04-29T00:39:35.373Z,10.13
2023-04-29T00:42:04.334Z,10.23
2023-04-29T00:44:32.561Z,10.06
2023-04-29T00:47:00.957Z,10.13
2023-04-29T00:49:29.350Z,10.19
2023-04-29T00:52:00.403Z,10.22
2023-04-29T00:54:28.742Z,10.18
2023-04-29T00:56:59.434Z,10.14
2023-04-29T00:59:32.312Z,10.17
2023-04-29T01:02:02.318Z,10.12
2023-04-29T01:04:30.729Z,9.92
2023-04-29T01:07:08.651Z,10.03
2023-04-29T01:09:51.633Z,10.16
2023-04-29T01:12:27.596Z,10.12
2023-04-29T01:15:05.591Z,10.08
2023-04-29T01:17:42.866Z,9.96
2023-04-29T01:20:12.341Z,9.87
2023-04-29T01:22:42.033Z,9.51
2023-04-29T01:25:11.703Z,9.79
2023-04-29T01:27:48.341Z,9.86
2023-04-29T01:30:30.105Z,9.89
2023-04-29T01:33:04.812Z,9.91
2023-04-29T01:35:47.032Z,9.82
2023-04-29T01:38:24.987Z,9.83
2023-04-29T01:41:02.173Z,9.73
2023-04-29T01:43:32.596Z,9.64
2023-04-29T01:46:01.248Z,9.75
2023-04-29T01:48:30.008Z,9.72
2023-04-29T01:50:58.319Z,9.23
2023-04-29T01:53:26.635Z,9.26
2023-04-29T01:55:56.215Z,9.63
2023-04-29T01:58:24.506Z,9.69
2023-04-29T02:00:52.809Z,9.63
2023-04-29T02:03:21.193Z,9.84
2023-04-29T02:05:50.713Z,9.49
2023-04-29T02:08:19.213Z,9.66
2023-04-29T02:10:56.038Z,9.54
2023-04-29T02:13:24.333Z,9.62
2023-04-29T02:15:52.728Z,9.60
2023-04-29T02:18:21.112Z,9.72
2023-04-29T02:20:50.752Z,9.84
2023-04-29T02:23:18.927Z,9.28
2023-04-29T02:25:47.264Z,9.46
2023-04-29T02:28:17.703Z,9.73
2023-04-29T02:30:46.242Z,9.74
2023-04-29T02:33:14.574Z,9.36
2023-04-29T02:35:43.165Z,9.54
2023-04-29T02:38:12.183Z,9.67
2023-04-29T02:40:43.320Z,9.51
2023-04-29T02:43:12.054Z,9.31
2023-04-29T02:45:41.775Z,9.46
2023-04-29T02:48:10.058Z,9.59
2023-04-29T02:50:38.277Z,9.59
2023-04-29T02:53:06.581Z,9.31
2023-04-29T02:55:34.843Z,9.32
2023-04-29T02:58:03.951Z,9.63
2023-04-29T03:00:32.264Z,9.66
2023-04-29T03:03:02.027Z,9.46
2023-04-29T03:05:30.461Z,9.51
2023-04-29T03:07:58.737Z,9.62
2023-04-29T03:10:27.004Z,9.76
2023-04-29T03:12:55.321Z,9.71
2023-04-29T03:15:23.601Z,9.59
2023-04-29T03:17:52.235Z,9.74
2023-04-29T03:20:22.349Z,9.63
2023-04-29T03:22:50.570Z,9.80
2023-04-29T03:25:18.784Z,9.69
2023-04-29T03:27:47.383Z,9.59
2023-04-29T03:30:15.803Z,9.57
2023-04-29T03:32:44.473Z,9.58
2023-04-29T03:35:15.572Z,9.58
2023-04-29T03:37:45.629Z,9.16
2023-04-29T03:40:15.004Z,9.23
2023-04-29T03:42:43.300Z,8.85
2023-04-29T03:45:14.596Z,9.00
2023-04-29T03:47:43.280Z,8.70
2023-04-29T03:50:12.050Z,8.40
2023-04-29T03:52:40.533Z,8.10
2023-04-29T03:55:11.704Z,8.29
2023-04-29T03:57:42.261Z,8.29
2023-04-29T04:00:11.874Z,8.18
2023-04-29T04:02:40.359Z,8.00
2023-04-29T04:05:09.438Z,8.88
2023-04-29T04:07:37.817Z,8.95
2023-04-29T04:10:06.700Z,8.95
2023-04-29T04:12:36.405Z,8.89
2023-04-29T04:15:05.263Z,9.13
2023-04-29T04:17:33.587Z,8.84
2023-04-29T04:20:01.803Z,8.91
2023-04-29T04:22:30.068Z,8.86
2023-04-29T04:24:58.425Z,9.48
2023-04-29T04:27:26.702Z,9.30
2023-04-29T04:29:57.038Z,9.11
2023-04-29T04:32:25.342Z,9.73
2023-04-29T04:34:53.576Z,9.56
2023-04-29T04:37:21.839Z,9.38
2023-04-29T04:39:50.379Z,9.90
2023-04-29T04:42:18.680Z,9.99
2023-04-29T04:44:46.936Z,10.51
2023-04-29T04:47:16.764Z,9.81
2023-04-29T04:49:45.294Z,9.53
2023-04-29T04:52:13.650Z,9.71
2023-04-29T04:54:41.801Z,9.97
2023-04-29T04:57:10.022Z,10.12
2023-04-29T04:59:38.375Z,10.50
2023-04-29T05:02:06.744Z,10.55
2023-04-29T05:04:36.407Z,9.90
2023-04-29T05:07:05.069Z,10.14
2023-04-29T05:09:33.330Z,10.65
2023-04-29T05:12:01.634Z,10.66
2023-04-29T05:14:30.914Z,11.10
2023-04-29T05:17:00.722Z,10.97
2023-04-29T05:19:29.049Z,11.87
2023-04-29T05:21:58.727Z,12.03
2023-04-29T05:24:27.013Z,10.95
2023-04-29T05:26:55.298Z,10.94
2023-04-29T05:29:23.555Z,10.93
2023-04-29T05:31:52.274Z,11.23
2023-04-29T05:34:20.830Z,11.37
2023-04-29T05:36:49.099Z,11.58
2023-04-29T05:39:19.010Z,10.94
2023-04-29T05:41:47.354Z,10.71
2023-04-29T05:44:15.542Z,11.20
2023-04-29T05:46:43.801Z,11.52
2023-04-29T05:49:12.158Z,10.78
2023-04-29T05:51:40.446Z,11.31
2023-04-29T05:54:08.738Z,10.78
2023-04-29T05:56:38.563Z,10.48
2023-04-29T05:59:06.813Z,10.56
2023-04-29T06:01:35.047Z,10.23
2023-04-29T06:04:03.488Z,10.23
2023-04-29T06:06:32.174Z,9.95
2023-04-29T06:09:03.182Z,10.01
2023-04-29T06:11:32.410Z,10.71
2023-04-29T06:14:02.198Z,10.99
2023-04-29T06:16:30.593Z,11.36
2023-04-29T06:18:58.909Z,10.97
2023-04-29T06:21:28.145Z,10.92
2023-04-29T06:23:56.487Z,11.74
2023-04-29T06:26:24.869Z,11.68
2023-04-29T06:28:54.338Z,12.06
2023-04-29T06:31:24.135Z,12.30
2023-04-29T06:33:52.503Z,13.00
2023-04-29T06:36:20.829Z,13.44
2023-04-29T06:38:49.047Z,13.86
2023-04-29T06:41:17.354Z,14.02
2023-04-29T06:43:47.338Z,13.10
2023-04-29T06:46:17.385Z,13.16
2023-04-29T06:48:47.197Z,13.12
2023-04-29T06:51:16.271Z,13.37
2023-04-29T06:53:44.572Z,14.15
2023-04-29T06:56:12.893Z,14.61
2023-04-29T06:58:41.124Z,14.56
2023-04-29T07:01:09.637Z,14.73
2023-04-29T07:03:38.136Z,14.24
2023-04-29T07:06:07.979Z,14.06
2023-04-29T07:08:36.256Z,13.95
2023-04-29T07:11:04.607Z,14.65
2023-04-29T07:13:32.931Z,14.97
2023-04-29T07:16:01.215Z,14.83
2023-04-29T07:18:29.532Z,14.87
2023-04-29T07:21:02.565Z,14.06
2023-04-29T07:23:32.245Z,14.71
2023-04-29T07:26:00.478Z,15.60
2023-04-29T07:28:28.789Z,16.00
2023-04-29T07:30:57.182Z,16.52
2023-04-29T07:33:25.548Z,15.85
2023-04-29T07:35:53.752Z,16.18
2023-04-29T07:38:22.419Z,16.57
2023-04-29T07:40:52.031Z,16.76
2023-04-29T07:43:20.414Z,16.90
2023-04-29T07:45:48.754Z,17.76
2023-04-29T07:48:17.065Z,17.31
2023-04-29T07:50:45.573Z,17.52
2023-04-29T07:53:13.838Z,18.37
2023-04-29T07:55:42.093Z,18.50
2023-04-29T07:58:11.763Z,18.45
2023-04-29T08:00:40.062Z,18.65
2023-04-29T08:03:08.490Z,18.80
2023-04-29T08:05:37.300Z,19.15
2023-04-29T08:08:05.864Z,19.82
2023-04-29T08:10:34.235Z,19.50
2023-04-29T08:13:02.586Z,19.77
2023-04-29T08:15:32.170Z,20.05
2023-04-29T08:18:00.574Z,19.80
2023-04-29T08:20:28.957Z,18.73
2023-04-29T08:22:59.463Z,19.66
2023-04-29T08:25:29.361Z,20.05
2023-04-29T08:27:57.935Z,20.27
2023-04-29T08:30:26.182Z,19.80
2023-04-29T08:32:55.915Z,19.53
2023-04-29T08:35:24.371Z,19.53
2023-04-29T08:37:54.805Z,20.12
2023-04-29T08:40:23.187Z,20.89
2023-04-29T08:42:52.090Z,21.90
2023-04-29T08:45:24.455Z,20.12
2023-04-29T08:47:56.465Z,21.20
2023-04-29T08:50:25.922Z,19.62
2023-04-29T08:52:54.247Z,20.78
2023-04-29T08:55:22.527Z,21.12
2023-04-29T08:57:51.826Z,21.35
2023-04-29T09:00:21.025Z,21.78
2023-04-29T09:02:52.858Z,20.83
2023-04-29T09:05:23.069Z,21.13
2023-04-29T09:07:53.007Z,21.55
2023-04-29T09:10:22.060Z,21.14
2023-04-29T09:12:50.249Z,21.19
2023-04-29T09:15:37.790Z,22.42
2023-04-29T09:19:10.134Z,22.02
2023-04-29T09:21:39.852Z,22.80
2023-04-29T09:24:08.252Z,22.46
2023-04-29T09:26:43.506Z,22.69
2023-04-29T09:29:14.280Z,22.93
2023-04-29T09:31:43.490Z,22.08
2023-04-29T09:34:13.253Z,23.29
2023-04-29T09:36:46.282Z,23.49
2023-04-29T09:39:16.438Z,23.69
2023-04-29T09:42:00.488Z,23.76
2023-04-29T09:44:33.599Z,23.30
2023-04-29T09:47:04.421Z,22.91
2023-04-29T09:49:35.912Z,22.45
2023-04-29T09:52:07.386Z,23.54
2023-04-29T09:54:38.617Z,24.82
2023-04-29T09:57:08.188Z,23.64
2023-04-29T09:59:38.512Z,24.14
2023-04-29T10:02:11.825Z,24.62
2023-04-29T10:04:43.541Z,25.48
2023-04-29T10:07:17.132Z,24.88
2023-04-29T10:09:48.073Z,24.37
2023-04-29T10:12:18.057Z,23.57
2023-04-29T10:14:56.231Z,24.46
2023-04-29T10:17:34.393Z,23.57
2023-04-29T10:20:07.604Z,25.17
2023-04-29T10:22:44.293Z,24.10
2023-04-29T10:25:14.751Z,25.83
2023-04-29T10:27:44.607Z,25.36
2023-04-29T10:30:14.947Z,25.86
2023-04-29T10:35:20.430Z,26.89
2023-04-29T10:37:50.775Z,27.40
2023-04-29T10:40:22.924Z,25.09
2023-04-29T10:42:53.059Z,25.66
2023-04-29T10:45:27.127Z,26.73
2023-04-29T10:48:15.473Z,27.19
2023-04-29T10:51:04.918Z,27.95
2023-04-29T10:53:34.655Z,26.00
2023-04-29T10:56:09.595Z,26.48
2023-04-29T10:58:40.041Z,27.83
2023-04-29T11:01:11.600Z,28.32
2023-04-29T11:03:58.882Z,28.09
2023-04-29T11:06:40.378Z,28.10
2023-04-29T11:09:13.842Z,28.49
2023-04-29T11:11:46.821Z,27.50
2023-04-29T11:14:16.831Z,27.17
2023-04-29T11:16:53.659Z,28.06
2023-04-29T11:19:22.336Z,28.88
2023-04-29T11:22:04.663Z,29.23
2023-04-29T11:24:35.918Z,28.57
2023-04-29T11:27:06.051Z,28.45
2023-04-29T11:29:34.662Z,28.67
2023-04-29T11:32:03.905Z,28.05
2023-04-29T11:34:32.190Z,26.75
2023-04-29T11:37:00.400Z,26.53
2023-04-29T11:39:29.041Z,27.90
2023-04-29T11:42:06.602Z,26.84
2023-04-29T11:44:38.207Z,27.04
2023-04-29T11:47:06.695Z,27.49
2023-04-29T11:49:35.700Z,27.73
2023-04-29T11:52:03.907Z,27.15
2023-04-29T11:54:32.287Z,25.81
2023-04-29T11:57:04.963Z,25.67
2023-04-29T11:59:34.816Z,25.23
2023-04-29T12:02:03.106Z,23.89
2023-04-29T12:04:31.606Z,24.68
2023-04-29T12:06:59.943Z,25.40
2023-04-29T12:09:28.519Z,25.60
2023-04-29T12:11:57.096Z,24.76
2023-04-29T12:14:25.470Z,24.11
2023-04-29T12:16:55.170Z,23.56
2023-04-29T12:19:23.946Z,23.88
2023-04-29T12:21:52.483Z,24.66
2023-04-29T12:24:22.755Z,24.70
2023-04-29T12:26:51.334Z,24.65
2023-04-29T12:29:23.769Z,25.12
2023-04-29T12:31:53.124Z,25.88
2023-04-29T12:34:28.676Z,25.37
2023-04-29T12:36:57.959Z,24.94
2023-04-29T12:39:27.243Z,24.80
2023-04-29T12:41:58.759Z,24.89
2023-04-29T12:44:27.595Z,25.75
2023-04-29T12:46:58.416Z,25.09
2023-04-29T12:49:30.062Z,23.84
2023-04-29T12:51:58.286Z,24.24
2023-04-29T12:54:26.706Z,24.27
2023-04-29T12:56:55.127Z,24.41
2023-04-29T12:59:23.404Z,24.11
2023-04-29T13:01:51.686Z,24.11
2023-04-29T13:04:20.511Z,24.23
2023-04-29T13:06:54.300Z,24.11
2023-04-29T13:09:22.661Z,23.52
2023-04-29T13:11:51.013Z,23.64
2023-04-29T13:14:19.242Z,23.46
2023-04-29T13:16:47.612Z,23.51
2023-04-29T13:19:30.548Z,23.22
2023-04-29T13:22:05.606Z,23.54
2023-04-29T13:24:35.989Z,23.89
2023-04-29T13:27:04.347Z,24.18
2023-04-29T13:29:32.620Z,22.35
2023-04-29T13:32:00.905Z,22.56
2023-04-29T13:34:29.176Z,22.32
2023-04-29T13:36:57.401Z,21.92
2023-04-29T13:39:27.345Z,22.61
2023-04-29T13:41:59.061Z,22.83
2023-04-29T13:44:36.112Z,22.96
2023-04-29T13:47:18.144Z,23.83
2023-04-29T13:55:38.941Z,24.40
2023-04-29T14:05:27.136Z,24.40
2023-04-29T14:07:55.541Z,24.06
2023-04-29T14:10:25.260Z,23.95
2023-04-29T14:12:53.629Z,23.16
2023-04-29T14:15:21.841Z,22.63
2023-04-29T14:17:51.539Z,23.34
2023-04-29T14:20:19.968Z,22.75
2023-04-29T14:22:48.370Z,22.65
2023-04-29T14:25:16.864Z,22.67
2023-04-29T14:27:46.478Z,22.28
2023-04-29T14:30:15.430Z,22.22
2023-04-29T14:32:43.681Z,22.49
2023-04-29T14:35:12.582Z,22.25
2023-04-29T14:37:40.901Z,21.71
2023-04-29T14:40:10.598Z,22.03
2023-04-29T14:42:38.872Z,21.90
2023-04-29T14:45:09.711Z,22.04
2023-04-29T14:47:38.061Z,21.92
2023-04-29T14:50:07.398Z,21.81
2023-04-29T14:52:35.609Z,21.57
2023-04-29T14:55:04.048Z,21.39
2023-04-29T14:57:32.315Z,21.23
2023-04-29T15:00:01.405Z,21.11
2023-04-29T15:02:31.114Z,21.01
2023-04-29T15:04:59.393Z,21.03
2023-04-29T15:07:31.158Z,20.55
2023-04-29T15:10:00.148Z,20.81
2023-04-29T15:12:28.595Z,20.91
2023-04-29T15:14:56.872Z,20.59
2023-04-29T15:17:25.692Z,20.72
2023-04-29T15:19:55.450Z,20.78
2023-04-29T15:22:23.788Z,20.60
2023-04-29T15:24:53.122Z,20.88
2023-04-29T15:27:21.564Z,20.56
2023-04-29T15:29:49.830Z,20.62
2023-04-29T15:32:18.120Z,20.42
2023-04-29T15:34:46.765Z,20.67
2023-04-29T15:37:17.642Z,20.56
2023-04-29T15:39:45.948Z,20.64
2023-04-29T15:42:14.225Z,20.56
2023-04-29T15:44:42.481Z,20.71
2023-04-29T15:47:10.916Z,20.84
2023-04-29T15:49:39.501Z,20.69
2023-04-29T15:52:07.822Z,20.69
2023-04-29T15:54:38.003Z,20.23
2023-04-29T15:57:06.722Z,20.50
2023-04-29T15:59:34.997Z,20.47
2023-04-29T16:02:03.867Z,20.24
2023-04-29T16:04:32.498Z,20.10
2023-04-29T16:07:01.623Z,20.22
2023-04-29T16:09:30.041Z,20.38
2023-04-29T16:11:59.800Z,20.20
2023-04-29T16:14:28.179Z,19.68
2023-04-29T16:16:57.647Z,19.66
2023-04-29T16:19:26.054Z,19.52
2023-04-29T16:21:54.308Z,19.43
2023-04-29T16:24:22.564Z,19.07
2023-04-29T16:26:51.501Z,19.32
2023-04-29T16:29:21.552Z,19.36
2023-04-29T16:31:49.959Z,18.77
2023-04-29T16:34:18.216Z,18.92
2023-04-29T16:36:46.404Z,18.77
2023-04-29T16:39:14.820Z,18.60
2023-04-29T16:41:43.310Z,18.71
2023-04-29T16:44:11.897Z,18.42
2023-04-29T16:46:41.862Z,18.76
2023-04-29T16:49:10.339Z,18.42
2023-04-29T16:51:38.820Z,18.61
2023-04-29T16:54:08.166Z,18.59
2023-04-29T16:56:36.454Z,18.65
2023-04-29T16:59:04.730Z,18.54
2023-04-29T17:01:34.292Z,18.39
2023-04-29T17:04:04.273Z,18.41
2023-04-29T17:06:33.743Z,18.46
2023-04-29T17:09:05.742Z,18.55
2023-04-29T17:11:34.023Z,18.54
2023-04-29T17:14:03.484Z,18.46
2023-04-29T17:16:31.900Z,18.26
2023-04-29T17:19:00.147Z,18.09
2023-04-29T17:21:32.552Z,17.83
2023-04-29T17:24:00.793Z,17.51
2023-04-29T17:26:29.064Z,17.36
2023-04-29T17:28:57.429Z,17.14
2023-04-29T17:31:31.111Z,17.30
2023-04-29T17:34:05.648Z,17.40
2023-04-29T17:36:35.428Z,17.57
2023-04-29T17:39:03.645Z,17.19
2023-04-29T17:41:31.925Z,17.58
2023-04-29T17:44:00.211Z,17.64
2023-04-29T17:46:28.680Z,17.14
2023-04-29T17:48:57.051Z,17.15
2023-04-29T17:51:25.335Z,17.03
2023-04-29T17:53:55.049Z,17.39
2023-04-29T17:56:23.666Z,17.36
2023-04-29T17:58:52.299Z,17.32
2023-04-29T18:01:20.692Z,16.89
2023-04-29T18:03:50.952Z,16.87
2023-04-29T18:06:19.482Z,16.90
2023-04-29T18:08:47.842Z,17.07
2023-04-29T18:11:17.581Z,17.08
2023-04-29T18:13:45.928Z,17.03
2023-04-29T18:16:14.274Z,17.04
2023-04-29T18:18:43.342Z,17.14
2023-04-29T18:21:11.669Z,17.10
2023-04-29T18:23:40.853Z,17.34
2023-04-29T18:26:10.064Z,17.23
2023-04-29T18:28:39.732Z,17.33
2023-04-29T18:31:08.123Z,16.96
2023-04-29T18:33:37.117Z,16.49
2023-04-29T18:36:05.873Z,16.48
2023-04-29T18:38:34.131Z,16.16
2023-04-29T18:41:02.545Z,16.22
2023-04-29T18:43:31.090Z,16.20
2023-04-29T18:46:00.838Z,16.20
2023-04-29T18:48:29.899Z,16.15
2023-04-29T18:51:00.331Z,15.73
2023-04-29T18:53:28.637Z,15.84
2023-04-29T18:55:57.083Z,16.04
2023-04-29T18:58:27.406Z,16.35
2023-04-29T19:00:57.937Z,15.60
2023-04-29T19:03:27.660Z,15.98
2023-04-29T19:05:55.910Z,15.68
2023-04-29T19:08:24.573Z,15.41
2023-04-29T19:10:53.633Z,15.56
2023-04-29T19:13:22.178Z,15.93
2023-04-29T19:15:52.753Z,15.90
2023-04-29T19:18:22.716Z,15.63
2023-04-29T19:20:53.712Z,15.43
2023-04-29T19:23:22.328Z,15.46
2023-04-29T19:25:50.542Z,15.25
2023-04-29T19:28:19.405Z,15.19
2023-04-29T19:30:47.726Z,15.33
2023-04-29T19:33:16.103Z,15.51
2023-04-29T19:35:44.421Z,15.70
2023-04-29T19:38:14.299Z,15.12
2023-04-29T19:40:42.677Z,15.55
2023-04-29T19:43:10.912Z,15.85
2023-04-29T19:45:39.225Z,15.74
2023-04-29T19:48:07.796Z,15.70
2023-04-29T19:50:36.183Z,15.65
2023-04-29T19:53:04.426Z,15.42
2023-04-29T19:55:34.174Z,15.05
2023-04-29T19:58:02.461Z,15.08
2023-04-29T20:00:31.560Z,15.35
2023-04-29T20:03:00.005Z,15.71
2023-04-29T20:05:29.029Z,16.00
2023-04-29T20:07:57.420Z,15.73
2023-04-29T20:10:27.502Z,14.30
2023-04-29T20:12:59.506Z,15.80
2023-04-29T20:15:27.770Z,15.51
2023-04-29T20:17:56.155Z,15.15
2023-04-29T20:20:25.191Z,15.42
2023-04-29T20:22:58.083Z,15.66
2023-04-29T20:25:27.245Z,15.89
2023-04-29T20:27:55.630Z,15.74
2023-04-29T20:30:26.067Z,15.91
2023-04-29T20:32:54.409Z,15.87
2023-04-29T20:35:22.881Z,15.68
2023-04-29T20:37:51.431Z,15.72
2023-04-29T20:40:19.884Z,15.54
2023-04-29T20:42:48.479Z,15.21
2023-04-29T20:45:17.126Z,14.77
2023-04-29T20:47:46.822Z,14.58
2023-04-29T20:50:15.095Z,14.70
2023-04-29T20:52:43.364Z,14.42
2023-04-29T20:55:12.201Z,14.70
2023-04-29T20:57:40.923Z,14.89
2023-04-29T21:00:10.387Z,14.99
2023-04-29T21:02:38.686Z,15.13
2023-04-29T21:05:09.986Z,15.10
2023-04-29T21:07:38.481Z,14.77
2023-04-29T21:10:07.407Z,14.88
2023-04-29T21:12:35.944Z,14.91
2023-04-29T21:15:04.541Z,14.99
2023-04-29T21:17:32.865Z,15.08
2023-04-29T21:20:01.190Z,14.87
2023-04-29T21:22:30.917Z,14.87
2023-04-29T21:24:59.143Z,15.00
2023-04-29T21:27:27.358Z,14.84
2023-04-29T21:29:55.753Z,14.92
2023-04-29T21:32:24.592Z,14.72
2023-04-29T21:34:52.869Z,14.86
2023-04-29T21:37:21.162Z,14.82
2023-04-29T21:39:51.026Z,14.83
2023-04-29T21:42:23.293Z,14.66
2023-04-29T21:44:51.573Z,14.72
2023-04-29T21:47:19.993Z,14.23
2023-04-29T21:49:48.599Z,13.92
2023-04-29T21:52:16.965Z,13.67
2023-04-29T21:54:45.265Z,13.83
2023-04-29T21:57:14.939Z,14.10
2023-04-29T21:59:43.234Z,14.33
2023-04-29T22:02:22.204Z,14.43
2023-04-29T22:04:51.557Z,14.50
2023-04-29T22:07:20.278Z,14.56
2023-04-29T22:09:49.916Z,14.45
2023-04-29T22:12:20.675Z,13.93
2023-04-29T22:14:49.535Z,13.81
2023-04-29T22:17:17.761Z,14.19
2023-04-29T22:19:45.987Z,14.30
2023-04-29T22:22:14.520Z,14.40
2023-04-29T22:24:42.752Z,14.29
2023-04-29T22:27:10.965Z,14.29
2023-04-29T22:29:40.724Z,14.46
2023-04-29T22:32:08.997Z,14.27
2023-04-29T22:34:37.342Z,14.42
2023-04-29T22:37:05.610Z,14.35
2023-04-29T22:39:33.881Z,14.39
2023-04-29T22:42:04.787Z,14.36
2023-04-29T22:44:33.181Z,13.55
2023-04-29T22:47:03.406Z,13.38
2023-04-29T22:49:31.719Z,13.06
2023-04-29T22:51:59.975Z,13.13
2023-04-29T22:54:29.661Z,13.54
2023-04-29T22:56:58.369Z,13.67
2023-04-29T22:59:26.812Z,13.75
2023-04-29T23:01:55.047Z,13.79
2023-04-29T23:04:25.016Z,13.80
2023-04-29T23:06:53.788Z,13.86
2023-04-29T23:09:22.031Z,13.79
2023-04-29T23:11:50.297Z,13.61
2023-04-29T23:14:18.664Z,13.59
2023-04-29T23:16:46.945Z,13.68
2023-04-29T23:19:15.197Z,13.58
2023-04-29T23:21:44.904Z,13.70
2023-04-29T23:24:13.103Z,13.72
2023-04-29T23:26:41.429Z,13.73
2023-04-29T23:29:09.826Z,13.74
2023-04-29T23:31:38.265Z,13.54
2023-04-29T23:34:06.571Z,13.72
2023-04-29T23:36:34.959Z,13.71
2023-04-29T23:39:05.281Z,13.69
2023-04-29T23:41:33.579Z,12.98
2023-04-29T23:44:02.565Z,12.93
2023-04-29T23:46:31.503Z,12.96
2023-04-29T23:48:59.926Z,13.07
2023-04-29T23:51:28.123Z,12.70
2023-04-29T23:53:56.331Z,12.48
2023-04-29T23:56:29.234Z,12.77
2023-04-29T23:58:57.566Z,12.67
